createdAt,value
2022-12-25T00:01:45.475Z,89.59
2022-12-25T00:04:12.943Z,89.56
2022-12-25T00:06:40.723Z,90.22
2022-12-25T00:09:08.179Z,90.14
2022-12-25T00:11:35.948Z,89.87
2022-12-25T00:14:03.689Z,89.70
2022-12-25T00:16:31.509Z,89.52
2022-12-25T00:19:00.343Z,89.64
2022-12-25T00:21:28.487Z,89.53
2022-12-25T00:23:58.629Z,89.82
2022-12-25T00:26:27.815Z,89.67
2022-12-25T00:28:57.614Z,89.86
2022-12-25T00:31:25.887Z,89.96
2022-12-25T00:33:53.646Z,90.22
2022-12-25T00:36:23.145Z,90.33
2022-12-25T00:38:50.843Z,90.80
2022-12-25T00:41:24.807Z,90.93
2022-12-25T00:43:52.327Z,90.98
2022-12-25T00:46:20.082Z,91.14
2022-12-25T00:48:47.970Z,91.11
2022-12-25T00:51:17.293Z,91.46
2022-12-25T00:53:44.825Z,91.11
2022-12-25T00:56:12.646Z,90.83
2022-12-25T00:58:40.291Z,90.60
2022-12-25T01:01:11.175Z,90.45
2022-12-25T01:03:38.937Z,90.42
2022-12-25T01:06:08.287Z,90.27
2022-12-25T01:08:38.923Z,90.27
2022-12-25T01:11:08.831Z,90.04
2022-12-25T01:13:37.275Z,89.94
2022-12-25T01:16:11.678Z,89.63
2022-12-25T01:18:39.342Z,89.44
2022-12-25T01:21:15.346Z,89.14
2022-12-25T01:23:44.393Z,88.65
2022-12-25T01:26:14.599Z,88.43
2022-12-25T01:28:42.158Z,88.17
2022-12-25T01:31:14.176Z,87.91
2022-12-25T01:33:43.082Z,87.67
2022-12-25T01:36:20.659Z,87.29
2022-12-25T01:38:49.230Z,87.21
2022-12-25T01:41:20.984Z,87.31
2022-12-25T01:44:11.056Z,87.44
2022-12-25T01:46:46.999Z,87.35
2022-12-25T01:49:28.860Z,87.27
2022-12-25T01:52:07.593Z,86.90
2022-12-25T01:54:55.969Z,86.45
2022-12-25T01:57:35.280Z,86.61
2022-12-25T02:00:13.981Z,86.41
2022-12-25T02:02:44.803Z,86.39
2022-12-25T02:05:24.671Z,86.25
2022-12-25T02:07:52.897Z,86.07
2022-12-25T02:10:20.688Z,85.93
2022-12-25T02:12:49.091Z,85.75
2022-12-25T02:15:21.036Z,85.75
2022-12-25T02:18:08.928Z,85.64
2022-12-25T02:20:50.833Z,85.57
2022-12-25T02:23:53.182Z,85.58
2022-12-25T02:26:47.311Z,85.46
2022-12-25T02:29:32.229Z,85.37
2022-12-25T02:32:14.578Z,85.30
2022-12-25T02:34:52.881Z,85.28
2022-12-25T02:37:38.244Z,85.38
2022-12-25T02:40:29.631Z,85.79
2022-12-25T02:43:33.255Z,86.14
2022-12-25T02:46:29.609Z,86.33
2022-12-25T02:49:20.006Z,86.33
2022-12-25T02:52:11.211Z,86.37
2022-12-25T02:55:01.852Z,86.40
2022-12-25T02:57:53.579Z,86.62
2022-12-25T03:00:47.161Z,86.69
2022-12-25T03:03:39.233Z,86.79
2022-12-25T03:06:32.686Z,86.59
2022-12-25T03:09:26.228Z,86.49
2022-12-25T03:12:20.275Z,86.36
2022-12-25T03:15:15.728Z,86.26
2022-12-25T03:17:53.049Z,85.97
2022-12-25T03:20:44.704Z,85.36
2022-12-25T03:23:47.742Z,85.19
2022-12-25T03:26:41.688Z,85.25
2022-12-25T03:29:16.716Z,85.24
2022-12-25T03:31:53.359Z,85.23
2022-12-25T03:35:03.601Z,85.30
2022-12-25T03:38:14.215Z,85.32
2022-12-25T03:41:31.407Z,85.28
2022-12-25T03:44:46.434Z,85.20
2022-12-25T03:47:34.574Z,85.13
2022-12-25T03:50:57.019Z,85.11
2022-12-25T03:53:51.234Z,85.22
2022-12-25T03:56:38.731Z,85.30
2022-12-25T03:59:25.065Z,85.22
2022-12-25T04:02:11.661Z,85.36
2022-12-25T04:04:58.105Z,85.47
2022-12-25T04:07:44.018Z,85.54
2022-12-25T04:10:30.414Z,85.56
2022-12-25T04:13:16.225Z,85.50
2022-12-25T04:16:02.187Z,85.47
2022-12-25T04:18:48.746Z,85.49
2022-12-25T04:21:34.955Z,85.54
2022-12-25T04:24:20.594Z,85.59
2022-12-25T04:27:06.358Z,85.55
2022-12-25T04:29:52.420Z,85.58
2022-12-25T04:32:38.977Z,85.32
2022-12-25T04:35:25.703Z,85.18
2022-12-25T04:37:53.324Z,85.08
2022-12-25T04:40:21.239Z,85.05
2022-12-25T04:42:51.771Z,84.94
2022-12-25T04:45:20.181Z,84.86
2022-12-25T04:47:47.827Z,84.70
2022-12-25T04:50:15.644Z,84.50
2022-12-25T04:52:43.200Z,84.39
2022-12-25T04:55:11.514Z,84.31
2022-12-25T04:57:39.948Z,84.17
2022-12-25T05:00:08.708Z,84.12
2022-12-25T05:02:36.910Z,84.07
2022-12-25T05:05:05.039Z,84.08
2022-12-25T05:07:33.502Z,84.17
2022-12-25T05:10:01.141Z,84.25
2022-12-25T05:12:28.896Z,84.26
2022-12-25T05:14:56.391Z,84.13
2022-12-25T05:17:24.070Z,84.21
2022-12-25T05:19:53.799Z,84.01
2022-12-25T05:22:21.572Z,84.10
2022-12-25T05:24:49.678Z,84.01
2022-12-25T05:27:17.138Z,84.04
2022-12-25T05:29:44.994Z,83.99
2022-12-25T05:32:14.519Z,83.60
2022-12-25T05:34:42.134Z,83.59
2022-12-25T05:37:09.732Z,83.72
2022-12-25T05:39:37.323Z,83.94
2022-12-25T05:42:05.221Z,84.11
2022-12-25T05:44:32.835Z,84.34
2022-12-25T05:47:00.596Z,84.41
2022-12-25T05:49:28.111Z,84.53
2022-12-25T05:51:55.721Z,84.67
2022-12-25T05:54:23.387Z,84.79
2022-12-25T05:56:50.953Z,84.72
2022-12-25T05:59:18.598Z,84.80
2022-12-25T06:01:46.242Z,84.82
2022-12-25T06:04:13.867Z,84.81
2022-12-25T06:06:41.460Z,84.75
2022-12-25T06:09:12.751Z,84.61
2022-12-25T06:11:40.721Z,84.49
2022-12-25T06:14:13.873Z,84.44
2022-12-25T06:16:41.863Z,84.42
2022-12-25T06:19:09.448Z,84.58
2022-12-25T06:21:37.258Z,84.59
2022-12-25T06:24:05.328Z,84.61
2022-12-25T06:26:33.228Z,84.78
2022-12-25T06:29:00.745Z,84.81
2022-12-25T06:31:28.501Z,84.94
2022-12-25T06:33:56.398Z,84.88
2022-12-25T06:36:27.306Z,84.82
2022-12-25T06:38:56.287Z,84.79
2022-12-25T06:41:27.339Z,84.86
2022-12-25T06:43:59.313Z,84.93
2022-12-25T06:46:29.083Z,85.28
2022-12-25T06:48:59.024Z,85.15
2022-12-25T06:51:31.003Z,84.86
2022-12-25T06:54:01.565Z,84.44
2022-12-25T06:56:30.445Z,84.48
2022-12-25T06:59:02.321Z,84.62
2022-12-25T07:01:46.617Z,84.67
2022-12-25T07:04:38.122Z,84.54
2022-12-25T07:07:09.338Z,84.26
2022-12-25T07:09:38.245Z,84.28
2022-12-25T07:12:19.664Z,84.38
2022-12-25T07:14:50.648Z,84.13
2022-12-25T07:17:19.833Z,84.47
2022-12-25T07:19:47.798Z,84.45
2022-12-25T07:22:16.245Z,84.17
2022-12-25T07:24:43.682Z,84.54
2022-12-25T07:27:11.422Z,84.89
2022-12-25T07:29:39.109Z,85.03
2022-12-25T07:32:07.082Z,85.12
2022-12-25T07:34:34.893Z,85.25
2022-12-25T07:37:02.366Z,85.28
2022-12-25T07:39:30.028Z,85.39
2022-12-25T07:41:57.675Z,85.54
2022-12-25T07:44:27.152Z,85.74
2022-12-25T07:46:54.752Z,85.70
2022-12-25T07:49:22.474Z,85.82
2022-12-25T07:51:50.154Z,85.68
2022-12-25T07:54:19.798Z,85.71
2022-12-25T07:56:52.605Z,85.85
2022-12-25T07:59:20.661Z,85.51
2022-12-25T08:01:50.132Z,84.47
2022-12-25T08:04:17.929Z,84.73
2022-12-25T08:06:45.393Z,85.10
2022-12-25T08:09:13.405Z,85.04
2022-12-25T08:11:46.715Z,84.49
2022-12-25T08:14:15.050Z,83.78
2022-12-25T08:16:42.720Z,84.11
2022-12-25T08:19:11.104Z,84.08
2022-12-25T08:21:39.186Z,84.22
2022-12-25T08:24:07.296Z,82.87
2022-12-25T08:26:35.046Z,83.53
2022-12-25T08:29:02.579Z,82.62
2022-12-25T08:31:33.020Z,81.40
2022-12-25T08:34:03.010Z,81.37
2022-12-25T08:36:31.083Z,80.56
2022-12-25T08:39:03.072Z,81.56
2022-12-25T08:41:28.294Z,81.81
2022-12-25T08:43:57.321Z,82.33
2022-12-25T08:46:24.911Z,82.12
2022-12-25T08:48:52.648Z,82.06
2022-12-25T08:51:22.029Z,82.61
2022-12-25T08:53:52.550Z,82.04
2022-12-25T08:56:20.465Z,82.26
2022-12-25T08:58:47.825Z,82.09
2022-12-25T09:01:15.554Z,81.84
2022-12-25T09:03:46.599Z,81.18
2022-12-25T09:06:16.535Z,81.86
2022-12-25T09:08:49.069Z,81.90
2022-12-25T09:11:14.956Z,82.53
2022-12-25T09:13:44.581Z,82.32
2022-12-25T09:16:16.805Z,82.26
2022-12-25T09:18:44.518Z,81.75
2022-12-25T09:21:15.163Z,81.57
2022-12-25T09:23:43.425Z,82.35
2022-12-25T09:26:14.616Z,80.84
2022-12-25T09:28:50.294Z,81.21
2022-12-25T09:31:14.607Z,81.59
2022-12-25T09:33:42.285Z,81.70
2022-12-25T09:36:10.872Z,81.18
2022-12-25T09:38:38.506Z,80.83
2022-12-25T09:41:29.737Z,80.39
2022-12-25T09:44:23.425Z,80.13
2022-12-25T09:46:59.716Z,80.71
2022-12-25T09:49:53.464Z,79.42
2022-12-25T09:52:29.522Z,77.68
2022-12-25T09:55:08.587Z,78.29
2022-12-25T09:57:36.087Z,78.46
2022-12-25T10:00:06.107Z,78.94
2022-12-25T10:03:16.949Z,79.17
2022-12-25T10:06:08.233Z,78.72
2022-12-25T10:08:58.845Z,78.54
2022-12-25T10:12:23.555Z,78.84
2022-12-25T10:15:17.856Z,78.54
2022-12-25T10:18:03.766Z,78.46
2022-12-25T10:20:51.755Z,78.90
2022-12-25T10:23:39.739Z,78.95
2022-12-25T10:26:22.621Z,79.31
2022-12-25T10:29:16.392Z,78.70
2022-12-25T10:31:50.056Z,77.96
2022-12-25T10:34:17.943Z,78.29
2022-12-25T10:36:46.771Z,78.88
2022-12-25T10:39:21.785Z,78.82
2022-12-25T10:42:25.353Z,78.36
2022-12-25T10:45:03.738Z,79.06
2022-12-25T10:47:37.448Z,78.12
2022-12-25T10:50:13.608Z,78.75
2022-12-25T10:53:04.659Z,78.43
2022-12-25T10:55:33.372Z,78.38
2022-12-25T10:58:01.695Z,78.54
2022-12-25T11:00:31.964Z,78.83
2022-12-25T11:03:00.560Z,78.60
2022-12-25T11:05:32.118Z,78.92
2022-12-25T11:08:02.693Z,79.39
2022-12-25T11:10:43.694Z,79.02
2022-12-25T11:13:24.104Z,78.66
2022-12-25T11:16:12.151Z,78.17
2022-12-25T11:18:49.718Z,78.00
2022-12-25T11:21:27.924Z,77.43
2022-12-25T11:24:08.956Z,77.50
2022-12-25T11:26:49.615Z,77.90
2022-12-25T11:29:35.086Z,78.52
2022-12-25T11:32:05.971Z,78.38
2022-12-25T11:34:41.342Z,78.17
2022-12-25T11:37:37.057Z,76.87
2022-12-25T11:40:07.230Z,76.80
2022-12-25T11:42:39.966Z,77.52
2022-12-25T11:45:18.310Z,76.60
2022-12-25T11:48:09.919Z,76.12
2022-12-25T11:50:48.039Z,77.30
2022-12-25T11:53:23.533Z,77.36
2022-12-25T11:55:56.180Z,77.01
2022-12-25T11:58:47.835Z,77.26
2022-12-25T12:01:44.779Z,77.24
2022-12-25T12:04:38.486Z,76.12
2022-12-25T12:07:18.992Z,76.50
2022-12-25T12:10:21.368Z,76.39
2022-12-25T12:13:17.346Z,76.74
2022-12-25T12:15:47.726Z,76.52
2022-12-25T12:18:29.589Z,75.44
2022-12-25T12:21:00.624Z,76.02
2022-12-25T12:23:33.003Z,75.62
2022-12-25T12:26:01.151Z,75.50
2022-12-25T12:28:34.225Z,75.98
2022-12-25T12:31:07.483Z,76.22
2022-12-25T12:33:42.279Z,76.46
2022-12-25T12:36:14.032Z,76.73
2022-12-25T12:38:44.140Z,76.64
2022-12-25T12:41:14.193Z,76.54
2022-12-25T12:43:49.992Z,76.46
2022-12-25T12:46:31.088Z,76.36
2022-12-25T12:49:16.296Z,76.28
2022-12-25T12:51:43.728Z,75.87
2022-12-25T12:54:23.103Z,75.13
2022-12-25T12:57:10.379Z,75.30
2022-12-25T12:59:48.038Z,75.10
2022-12-25T13:02:50.322Z,74.95
2022-12-25T13:05:50.492Z,75.03
2022-12-25T13:09:00.247Z,75.58
2022-12-25T13:11:32.189Z,75.18
2022-12-25T13:14:02.834Z,75.12
2022-12-25T13:16:39.104Z,75.36
2022-12-25T13:19:13.756Z,75.57
2022-12-25T13:21:47.910Z,75.13
2022-12-25T13:24:26.364Z,75.74
2022-12-25T13:26:54.692Z,75.83
2022-12-25T13:29:34.936Z,75.72
2022-12-25T13:32:06.999Z,75.80
2022-12-25T13:34:38.783Z,75.75
2022-12-25T13:37:19.536Z,75.45
2022-12-25T13:40:00.455Z,75.31
2022-12-25T13:42:35.867Z,75.56
2022-12-25T13:45:26.822Z,75.72
2022-12-25T13:47:55.734Z,75.81
2022-12-25T13:50:33.418Z,75.76
2022-12-25T13:53:15.465Z,75.88
2022-12-25T13:55:47.221Z,76.26
2022-12-25T13:58:20.218Z,76.51
2022-12-25T14:00:52.542Z,76.66
2022-12-25T14:03:36.861Z,76.42
2022-12-25T14:06:08.601Z,76.25
2022-12-25T14:08:36.571Z,76.11
2022-12-25T14:11:06.279Z,75.78
2022-12-25T14:13:38.043Z,75.73
2022-12-25T14:16:10.504Z,75.64
2022-12-25T14:18:38.292Z,75.56
2022-12-25T14:21:10.642Z,75.52
2022-12-25T14:23:45.256Z,75.40
2022-12-25T14:26:29.236Z,75.22
2022-12-25T14:29:16.488Z,75.27
2022-12-25T14:31:40.369Z,74.77
2022-12-25T14:34:19.073Z,74.76
2022-12-25T14:36:47.617Z,74.85
2022-12-25T14:39:38.159Z,75.01
2022-12-25T14:42:19.974Z,75.29
2022-12-25T14:45:09.383Z,75.56
2022-12-25T14:47:54.345Z,75.74
2022-12-25T14:50:36.916Z,75.85
2022-12-25T14:53:08.377Z,75.94
2022-12-25T14:55:37.048Z,75.98
2022-12-25T14:58:07.680Z,75.99
2022-12-25T15:00:38.312Z,76.00
2022-12-25T15:03:20.368Z,76.14
2022-12-25T15:06:07.460Z,76.17
2022-12-25T15:08:35.308Z,76.22
2022-12-25T15:11:03.691Z,75.99
2022-12-25T15:13:32.113Z,75.74
2022-12-25T15:16:05.465Z,75.96
2022-12-25T15:18:40.843Z,76.10
2022-12-25T15:21:23.256Z,76.25
2022-12-25T15:23:54.578Z,76.18
2022-12-25T15:26:22.662Z,75.61
2022-12-25T15:28:50.255Z,75.46
2022-12-25T15:31:28.159Z,75.39
2022-12-25T15:33:59.000Z,75.67
2022-12-25T15:36:27.299Z,75.61
2022-12-25T15:38:55.917Z,75.68
2022-12-25T15:41:54.799Z,75.28
2022-12-25T15:44:24.138Z,75.16
2022-12-25T15:46:52.216Z,75.03
2022-12-25T15:49:20.038Z,74.90
2022-12-25T15:51:47.936Z,74.95
2022-12-25T15:54:15.897Z,75.21
2022-12-25T15:56:50.506Z,75.48
2022-12-25T15:59:20.171Z,75.33
2022-12-25T16:01:54.838Z,75.60
2022-12-25T16:04:24.149Z,75.82
2022-12-25T16:06:52.543Z,75.65
2022-12-25T16:09:21.541Z,75.95
2022-12-25T16:11:49.529Z,75.73
2022-12-25T16:14:18.935Z,75.75
2022-12-25T16:16:46.696Z,75.93
2022-12-25T16:19:14.188Z,76.29
2022-12-25T16:21:45.341Z,76.41
2022-12-25T16:24:13.674Z,76.13
2022-12-25T16:26:42.010Z,76.10
2022-12-25T16:29:09.904Z,76.04
2022-12-25T16:31:38.031Z,75.98
2022-12-25T16:34:07.588Z,75.73
2022-12-25T16:36:36.589Z,75.54
2022-12-25T16:39:05.031Z,75.84
2022-12-25T16:41:32.650Z,76.07
2022-12-25T16:44:07.380Z,76.05
2022-12-25T16:46:36.309Z,75.81
2022-12-25T16:49:04.084Z,75.93
2022-12-25T16:51:32.103Z,76.19
2022-12-25T16:53:59.791Z,76.20
2022-12-25T16:56:28.732Z,76.03
2022-12-25T16:58:57.829Z,75.79
2022-12-25T17:01:26.116Z,75.83
2022-12-25T17:03:54.216Z,75.86
2022-12-25T17:06:27.846Z,75.71
2022-12-25T17:08:59.186Z,75.64
2022-12-25T17:11:29.203Z,75.12
2022-12-25T17:14:01.464Z,75.14
2022-12-25T17:16:35.348Z,75.27
2022-12-25T17:19:10.526Z,75.49
2022-12-25T17:21:37.965Z,75.71
2022-12-25T17:24:06.789Z,75.34
2022-12-25T17:26:35.387Z,75.45
2022-12-25T17:29:03.455Z,75.51
2022-12-25T17:31:31.397Z,75.51
2022-12-25T17:34:02.211Z,75.27
2022-12-25T17:36:30.822Z,75.18
2022-12-25T17:39:03.840Z,75.37
2022-12-25T17:41:32.501Z,75.57
2022-12-25T17:44:00.377Z,75.95
2022-12-25T17:46:29.875Z,76.33
2022-12-25T17:49:00.687Z,76.49
2022-12-25T17:51:30.340Z,76.72
2022-12-25T17:54:02.678Z,77.14
2022-12-25T17:56:31.963Z,77.25
2022-12-25T17:59:03.992Z,77.47
2022-12-25T18:01:31.569Z,77.67
2022-12-25T18:03:59.997Z,77.69
2022-12-25T18:06:29.088Z,77.93
2022-12-25T18:08:58.252Z,78.00
2022-12-25T18:11:31.000Z,77.98
2022-12-25T18:14:02.172Z,78.10
2022-12-25T18:16:33.013Z,78.27
2022-12-25T18:19:00.931Z,78.24
2022-12-25T18:21:29.019Z,78.41
2022-12-25T18:23:56.634Z,78.58
2022-12-25T18:26:25.462Z,78.68
2022-12-25T18:28:53.191Z,78.80
2022-12-25T18:31:23.877Z,78.76
2022-12-25T18:33:52.755Z,78.72
2022-12-25T18:36:24.024Z,78.80
2022-12-25T18:38:53.790Z,78.98
2022-12-25T18:41:23.448Z,78.75
2022-12-25T18:43:55.227Z,78.44
2022-12-25T18:46:23.470Z,78.12
2022-12-25T18:48:51.826Z,78.01
2022-12-25T18:51:19.510Z,77.83
2022-12-25T18:53:47.013Z,77.64
2022-12-25T18:56:17.286Z,77.55
2022-12-25T18:58:47.134Z,77.59
2022-12-25T19:01:19.489Z,77.60
2022-12-25T19:03:49.600Z,77.48
2022-12-25T19:06:27.210Z,77.52
2022-12-25T19:08:55.954Z,77.38
2022-12-25T19:11:23.736Z,77.47
2022-12-25T19:13:51.460Z,77.34
2022-12-25T19:16:19.549Z,77.19
2022-12-25T19:18:47.420Z,77.11
2022-12-25T19:21:15.593Z,77.23
2022-12-25T19:23:43.960Z,77.24
2022-12-25T19:26:11.983Z,77.13
2022-12-25T19:28:40.930Z,77.15
2022-12-25T19:31:09.984Z,77.25
2022-12-25T19:33:43.165Z,77.21
2022-12-25T19:36:14.198Z,77.19
2022-12-25T19:38:43.544Z,77.25
2022-12-25T19:41:18.062Z,77.31
2022-12-25T19:43:47.832Z,77.42
2022-12-25T19:46:21.131Z,77.46
2022-12-25T19:48:49.088Z,77.48
2022-12-25T19:51:27.370Z,77.50
2022-12-25T19:53:58.628Z,77.50
2022-12-25T19:56:28.296Z,77.47
2022-12-25T19:58:56.841Z,77.40
2022-12-25T20:01:27.675Z,77.27
2022-12-25T20:03:55.437Z,77.20
2022-12-25T20:06:28.101Z,77.25
2022-12-25T20:09:00.858Z,77.24
2022-12-25T20:11:30.514Z,77.46
2022-12-25T20:13:58.927Z,77.30
2022-12-25T20:16:27.044Z,77.06
2022-12-25T20:18:55.997Z,77.07
2022-12-25T20:21:24.131Z,77.00
2022-12-25T20:23:54.007Z,76.82
2022-12-25T20:26:25.821Z,76.62
2022-12-25T20:28:54.090Z,76.49
2022-12-25T20:31:29.078Z,76.19
2022-12-25T20:34:00.745Z,76.09
2022-12-25T20:36:34.640Z,75.89
2022-12-25T20:38:58.164Z,76.01
2022-12-25T20:41:27.918Z,76.05
2022-12-25T20:43:55.778Z,76.07
2022-12-25T20:46:24.885Z,76.00
2022-12-25T20:48:53.216Z,75.70
2022-12-25T20:51:24.600Z,75.70
2022-12-25T20:53:54.279Z,76.05
2022-12-25T20:56:25.098Z,76.48
2022-12-25T20:58:57.075Z,76.78
2022-12-25T21:01:24.984Z,77.16
2022-12-25T21:03:53.667Z,77.47
2022-12-25T21:06:22.366Z,77.59
2022-12-25T21:08:49.990Z,77.59
2022-12-25T21:11:17.720Z,77.34
2022-12-25T21:13:46.274Z,76.96
2022-12-25T21:16:19.595Z,77.08
2022-12-25T21:18:48.941Z,77.31
2022-12-25T21:21:16.730Z,77.50
2022-12-25T21:23:45.058Z,77.34
2022-12-25T21:26:23.838Z,77.07
2022-12-25T21:28:55.544Z,76.75
2022-12-25T21:31:24.753Z,76.82
2022-12-25T21:33:54.650Z,77.03
2022-12-25T21:36:29.841Z,77.01
2022-12-25T21:39:05.191Z,76.93
2022-12-25T21:41:36.578Z,76.74
2022-12-25T21:44:05.662Z,76.85
2022-12-25T21:46:33.563Z,76.99
2022-12-25T21:49:01.349Z,77.14
2022-12-25T21:51:52.972Z,77.17
2022-12-25T21:54:23.045Z,77.04
2022-12-25T21:56:50.678Z,77.10
2022-12-25T21:59:21.377Z,77.37
2022-12-25T22:01:51.422Z,77.62
2022-12-25T22:04:22.650Z,77.63
2022-12-25T22:07:08.874Z,77.26
2022-12-25T22:09:37.472Z,76.99
2022-12-25T22:12:27.363Z,77.04
2022-12-25T22:14:57.093Z,77.09
2022-12-25T22:17:50.470Z,77.02
2022-12-25T22:20:23.374Z,76.98
2022-12-25T22:22:51.720Z,77.12
2022-12-25T22:25:20.222Z,77.08
2022-12-25T22:27:48.984Z,77.04
2022-12-25T22:30:26.265Z,76.95
2022-12-25T22:32:54.445Z,76.86
2022-12-25T22:35:21.994Z,76.80
2022-12-25T22:37:49.995Z,76.96
2022-12-25T22:40:20.061Z,77.07
2022-12-25T22:42:47.931Z,77.28
2022-12-25T22:45:15.688Z,77.41
2022-12-25T22:47:43.352Z,77.49
2022-12-25T22:50:16.650Z,77.60
2022-12-25T22:52:45.199Z,77.53
2022-12-25T22:55:17.446Z,77.54
2022-12-25T22:57:45.097Z,77.73
2022-12-25T23:00:13.859Z,77.90
2022-12-25T23:02:41.834Z,78.10
2022-12-25T23:05:09.694Z,78.21
2022-12-25T23:07:37.406Z,78.23
2022-12-25T23:10:07.050Z,78.27
2022-12-25T23:12:53.020Z,78.27
2022-12-25T23:15:20.907Z,78.20
2022-12-25T23:18:07.019Z,78.28
2022-12-25T23:20:54.917Z,78.37
2022-12-25T23:23:41.866Z,78.18
2022-12-25T23:26:11.757Z,78.21
2022-12-25T23:29:01.167Z,78.29
2022-12-25T23:31:34.018Z,78.18
2022-12-25T23:34:02.345Z,78.08
2022-12-25T23:36:30.039Z,78.02
2022-12-25T23:39:03.104Z,78.19
2022-12-25T23:41:27.197Z,78.13
2022-12-25T23:43:55.139Z,77.81
2022-12-25T23:46:22.555Z,77.67
2022-12-25T23:48:50.130Z,77.95
2022-12-25T23:51:17.707Z,77.67
2022-12-25T23:53:45.510Z,77.35
2022-12-25T23:56:14.174Z,77.08
2022-12-25T23:58:44.154Z,77.09
